createdAt,value
2019-02-17T00:00:48.999Z,18.10
2019-02-17T00:03:18.265Z,17.83
2019-02-17T00:05:47.687Z,16.90
2019-02-17T00:08:16.936Z,16.70
2019-02-17T00:10:46.227Z,16.73
2019-02-17T00:13:16.256Z,15.83
2019-02-17T00:15:45.662Z,16.33
2019-02-17T00:18:14.965Z,16.57
2019-02-17T00:20:44.247Z,16.63
2019-02-17T00:23:13.530Z,16.53
2019-02-17T00:25:43.650Z,17.33
2019-02-17T00:28:12.985Z,17.03
2019-02-17T00:30:42.268Z,17.07
2019-02-17T00:33:12.508Z,17.40
2019-02-17T00:35:41.921Z,29.13
2019-02-17T00:38:11.216Z,18.83
2019-02-17T00:40:40.550Z,17.70
2019-02-17T00:43:09.871Z,18.03
2019-02-17T00:45:39.345Z,17.27
2019-02-17T00:48:08.645Z,18.77
2019-02-17T00:50:38.991Z,19.20
2019-02-17T00:53:10.622Z,18.43
2019-02-17T00:55:40.097Z,18.57
2019-02-17T00:58:09.467Z,20.50
2019-02-17T01:00:38.914Z,18.73
2019-02-17T01:03:08.574Z,17.53
2019-02-17T01:05:37.895Z,17.83
2019-02-17T01:08:07.592Z,17.40
2019-02-17T01:10:37.021Z,17.60
2019-02-17T01:13:06.291Z,17.53
2019-02-17T01:15:36.102Z,15.73
2019-02-17T01:18:05.574Z,16.47
2019-02-17T01:20:35.182Z,16.73
2019-02-17T01:23:04.499Z,16.50
2019-02-17T01:25:34.394Z,14.43
2019-02-17T01:28:03.994Z,14.73
2019-02-17T01:30:33.475Z,16.23
2019-02-17T01:33:02.760Z,14.80
2019-02-17T01:35:32.149Z,15.43
2019-02-17T01:38:01.506Z,16.20
2019-02-17T01:40:34.417Z,15.90
2019-02-17T01:43:04.229Z,14.90
2019-02-17T01:45:33.631Z,14.50
2019-02-17T01:48:02.876Z,15.20
2019-02-17T01:50:32.245Z,14.13
2019-02-17T01:53:01.527Z,14.93
2019-02-17T01:55:31.157Z,15.50
2019-02-17T01:58:00.474Z,15.40
2019-02-17T02:00:29.839Z,40.73
2019-02-17T02:02:59.105Z,17.20
2019-02-17T02:05:28.489Z,16.40
2019-02-17T02:07:57.762Z,15.13
2019-02-17T02:10:27.253Z,15.53
2019-02-17T02:12:57.012Z,14.83
2019-02-17T02:18:01.827Z,14.67
2019-02-17T02:20:31.160Z,16.27
2019-02-17T02:23:00.426Z,15.33
2019-02-17T02:25:30.389Z,15.23
2019-02-17T02:27:59.640Z,15.03
2019-02-17T02:30:29.101Z,14.70
2019-02-17T02:32:58.441Z,14.93
2019-02-17T02:35:27.878Z,15.63
2019-02-17T02:37:57.187Z,15.63
2019-02-17T02:40:27.738Z,15.60
2019-02-17T02:42:57.057Z,15.93
2019-02-17T02:45:26.453Z,15.23
2019-02-17T02:47:55.696Z,16.20
2019-02-17T02:50:25.185Z,15.10
2019-02-17T02:52:54.424Z,16.10
2019-02-17T02:55:24.773Z,15.10
2019-02-17T02:57:55.216Z,13.90
2019-02-17T03:00:25.071Z,14.77
2019-02-17T03:02:54.357Z,14.53
2019-02-17T03:05:23.751Z,13.37
2019-02-17T03:07:54.682Z,14.37
2019-02-17T03:10:24.989Z,15.77
2019-02-17T03:12:54.276Z,16.23
2019-02-17T03:15:23.725Z,14.17
2019-02-17T03:17:53.000Z,13.60
2019-02-17T03:20:22.383Z,14.03
2019-02-17T03:22:51.756Z,14.60
2019-02-17T03:25:21.141Z,16.63
2019-02-17T03:27:50.406Z,15.23
2019-02-17T03:30:20.118Z,14.80
2019-02-17T03:32:49.408Z,14.33
2019-02-17T03:35:18.778Z,15.50
2019-02-17T03:37:48.252Z,17.33
2019-02-17T03:40:17.780Z,14.90
2019-02-17T03:42:47.091Z,14.03
2019-02-17T03:45:16.408Z,13.00
2019-02-17T03:47:45.758Z,13.10
2019-02-17T03:50:17.213Z,13.77
2019-02-17T03:52:46.549Z,14.17
2019-02-17T03:55:16.066Z,14.20
2019-02-17T03:57:45.329Z,15.47
2019-02-17T04:00:17.211Z,13.10
2019-02-17T04:02:45.694Z,12.33
2019-02-17T04:05:15.699Z,12.67
2019-02-17T04:07:45.262Z,12.57
2019-02-17T04:10:14.604Z,12.47
2019-02-17T04:12:43.920Z,12.47
2019-02-17T04:15:13.426Z,11.70
2019-02-17T04:17:42.848Z,12.77
2019-02-17T04:20:12.149Z,12.20
2019-02-17T04:22:41.573Z,12.23
2019-02-17T04:25:11.212Z,11.83
2019-02-17T04:27:40.464Z,11.57
2019-02-17T04:30:09.841Z,11.17
2019-02-17T04:32:39.141Z,11.93
2019-02-17T04:35:08.604Z,11.70
2019-02-17T04:37:38.153Z,11.57
2019-02-17T04:40:07.443Z,11.57
2019-02-17T04:42:36.889Z,11.60
2019-02-17T04:45:06.625Z,11.50
2019-02-17T04:47:36.027Z,11.60
2019-02-17T04:50:05.451Z,11.97
2019-02-17T04:52:37.982Z,11.83
2019-02-17T04:55:07.779Z,11.10
2019-02-17T04:57:37.788Z,11.80
2019-02-17T05:00:07.825Z,13.07
2019-02-17T05:02:37.088Z,10.73
2019-02-17T05:05:06.729Z,11.07
2019-02-17T05:07:35.987Z,10.93
2019-02-17T05:10:05.713Z,9.73
2019-02-17T05:12:35.146Z,10.57
2019-02-17T05:15:04.623Z,10.73
2019-02-17T05:17:34.075Z,9.63
2019-02-17T05:20:03.620Z,10.43
2019-02-17T05:22:34.995Z,10.13
2019-02-17T05:25:04.447Z,9.80
2019-02-17T05:27:33.725Z,9.60
2019-02-17T05:30:04.497Z,9.13
2019-02-17T05:32:33.789Z,9.40
2019-02-17T05:35:05.066Z,9.23
2019-02-17T05:37:34.293Z,9.87
2019-02-17T05:40:03.730Z,9.13
2019-02-17T05:42:33.309Z,9.00
2019-02-17T05:45:03.867Z,9.83
2019-02-17T05:47:33.194Z,9.70
2019-02-17T05:50:02.536Z,9.07
2019-02-17T05:52:32.009Z,9.53
2019-02-17T05:55:01.293Z,9.53
2019-02-17T05:57:30.793Z,9.30
2019-02-17T06:00:01.996Z,9.43
2019-02-17T06:02:33.156Z,9.83
2019-02-17T06:05:02.429Z,9.53
2019-02-17T06:07:32.926Z,9.10
2019-02-17T06:10:02.253Z,9.07
2019-02-17T06:12:31.732Z,8.33
2019-02-17T06:15:01.012Z,9.87
2019-02-17T06:17:30.464Z,8.73
2019-02-17T06:19:59.857Z,8.40
2019-02-17T06:22:31.850Z,9.30
2019-02-17T06:25:01.822Z,9.70
2019-02-17T06:27:31.149Z,9.47
2019-02-17T06:30:00.513Z,9.23
2019-02-17T06:32:30.019Z,9.50
2019-02-17T06:34:59.450Z,8.97
2019-02-17T06:37:28.700Z,9.37
2019-02-17T06:39:58.061Z,10.63
2019-02-17T06:42:28.620Z,9.50
2019-02-17T06:44:58.063Z,10.57
2019-02-17T06:47:33.256Z,10.17
2019-02-17T06:50:02.683Z,10.20
2019-02-17T06:52:32.495Z,10.50
2019-02-17T06:55:30.246Z,10.30
2019-02-17T06:57:59.557Z,10.93
2019-02-17T07:00:35.254Z,10.13
2019-02-17T07:03:04.491Z,10.53
2019-02-17T07:05:52.893Z,10.53
2019-02-17T07:08:22.229Z,9.83
2019-02-17T07:10:51.611Z,9.83
2019-02-17T07:13:20.948Z,10.70
2019-02-17T07:15:50.450Z,9.77
2019-02-17T07:18:19.750Z,9.67
2019-02-17T07:20:49.172Z,9.33
2019-02-17T07:23:18.425Z,9.50
2019-02-17T07:25:49.102Z,9.57
2019-02-17T07:28:18.474Z,10.33
2019-02-17T07:30:47.765Z,9.03
2019-02-17T07:33:16.992Z,10.33
2019-02-17T07:35:46.407Z,9.97
2019-02-17T07:38:15.653Z,10.17
2019-02-17T07:40:47.404Z,10.13
2019-02-17T07:43:16.717Z,10.33
2019-02-17T07:45:45.980Z,10.23
2019-02-17T07:48:15.380Z,9.20
2019-02-17T07:50:44.657Z,9.60
2019-02-17T07:53:14.530Z,10.40
2019-02-17T07:55:43.848Z,10.40
2019-02-17T07:58:13.149Z,10.10
2019-02-17T08:00:44.876Z,11.00
2019-02-17T08:03:14.292Z,11.00
2019-02-17T08:05:43.595Z,14.30
2019-02-17T08:08:12.996Z,14.47
2019-02-17T08:10:42.267Z,14.23
2019-02-17T08:13:12.600Z,14.53
2019-02-17T08:15:41.956Z,15.70
2019-02-17T08:18:11.290Z,15.00
2019-02-17T08:20:40.526Z,27.77
2019-02-17T08:23:10.120Z,40.77
2019-02-17T08:25:39.521Z,39.40
2019-02-17T08:28:08.924Z,34.13
2019-02-17T08:30:38.361Z,43.50
2019-02-17T08:33:07.639Z,41.13
2019-02-17T08:35:37.135Z,42.30
2019-02-17T08:38:06.458Z,40.13
2019-02-17T08:40:35.849Z,41.17
2019-02-17T08:43:05.130Z,41.10
2019-02-17T08:45:34.543Z,39.13
2019-02-17T08:48:03.817Z,37.27
2019-02-17T08:50:33.196Z,37.13
2019-02-17T08:53:02.466Z,38.70
2019-02-17T08:55:31.927Z,40.17
2019-02-17T08:58:01.212Z,37.17
2019-02-17T09:00:30.719Z,35.77
2019-02-17T09:03:00.016Z,37.77
2019-02-17T09:05:29.496Z,36.80
2019-02-17T09:07:58.898Z,37.27
2019-02-17T09:10:28.522Z,38.47
2019-02-17T09:12:57.780Z,39.67
2019-02-17T09:15:27.218Z,40.90
2019-02-17T09:17:56.582Z,40.95
2019-02-17T09:20:25.854Z,42.30
2019-02-17T09:22:55.351Z,43.60
2019-02-17T09:25:24.626Z,43.60
2019-02-17T09:27:56.025Z,43.05
2019-02-17T09:30:26.861Z,43.58
2019-02-17T09:32:56.292Z,42.10
2019-02-17T09:35:25.736Z,44.25
2019-02-17T09:37:55.158Z,43.17
2019-02-17T09:40:24.618Z,43.68
2019-02-17T09:42:54.054Z,46.30
2019-02-17T09:45:23.425Z,45.50
2019-02-17T09:47:52.812Z,43.40
2019-02-17T09:50:23.327Z,46.77
2019-02-17T09:52:52.640Z,49.93
2019-02-17T09:55:22.004Z,46.63
2019-02-17T09:57:51.253Z,49.08
2019-02-17T10:00:20.630Z,47.08
2019-02-17T10:02:49.958Z,47.38
2019-02-17T10:05:19.384Z,47.95
2019-02-17T10:07:48.668Z,47.62
2019-02-17T10:10:18.073Z,48.52
2019-02-17T10:12:49.012Z,46.80
2019-02-17T10:15:19.931Z,46.35
2019-02-17T10:17:52.917Z,46.53
2019-02-17T10:20:24.552Z,48.38
2019-02-17T10:22:56.038Z,46.83
2019-02-17T10:25:26.874Z,45.17
2019-02-17T10:27:57.837Z,45.25
2019-02-17T10:30:29.821Z,45.55
2019-02-17T10:33:02.981Z,47.85
2019-02-17T10:35:34.854Z,44.73
2019-02-17T10:38:07.050Z,45.50
2019-02-17T10:40:38.503Z,43.15
2019-02-17T10:43:09.106Z,43.50
2019-02-17T10:45:40.993Z,45.85
2019-02-17T10:48:11.591Z,45.35
2019-02-17T10:50:41.650Z,43.48
2019-02-17T10:53:11.558Z,43.95
2019-02-17T10:55:47.043Z,41.13
2019-02-17T10:58:19.210Z,44.40
2019-02-17T11:00:59.457Z,43.75
2019-02-17T11:03:32.358Z,41.05
2019-02-17T11:06:05.718Z,41.85
2019-02-17T11:08:37.158Z,41.28
2019-02-17T11:11:09.961Z,41.15
2019-02-17T11:13:47.978Z,40.83
2019-02-17T11:16:19.020Z,41.95
2019-02-17T11:18:51.973Z,40.15
2019-02-17T11:21:21.875Z,40.95
2019-02-17T11:23:56.118Z,39.05
2019-02-17T11:26:29.246Z,38.20
2019-02-17T11:29:00.562Z,37.45
2019-02-17T11:31:30.189Z,45.45
2019-02-17T11:34:01.439Z,39.10
2019-02-17T11:36:31.050Z,37.78
2019-02-17T11:39:05.529Z,37.38
2019-02-17T11:41:37.374Z,36.98
2019-02-17T11:44:11.317Z,36.08
2019-02-17T11:46:43.015Z,35.95
2019-02-17T11:49:13.112Z,34.75
2019-02-17T11:51:45.589Z,34.45
2019-02-17T11:54:20.151Z,33.90
2019-02-17T11:56:52.665Z,35.35
2019-02-17T11:59:24.010Z,35.90
2019-02-17T12:01:56.325Z,34.38
2019-02-17T12:04:28.941Z,32.10
2019-02-17T12:07:03.107Z,30.72
2019-02-17T12:09:33.150Z,31.33
2019-02-17T12:12:09.143Z,30.72
2019-02-17T12:14:39.876Z,32.70
2019-02-17T12:17:12.198Z,33.75
2019-02-17T12:19:42.111Z,32.55
2019-02-17T12:22:23.004Z,34.08
2019-02-17T12:25:18.454Z,33.33
2019-02-17T12:27:56.346Z,32.60
2019-02-17T12:30:27.939Z,31.27
2019-02-17T12:32:57.627Z,33.70
2019-02-17T12:35:28.668Z,34.23
2019-02-17T12:38:05.701Z,34.78
2019-02-17T12:40:38.720Z,34.40
2019-02-17T12:43:09.759Z,36.08
2019-02-17T12:45:40.195Z,35.40
2019-02-17T12:48:13.311Z,36.13
2019-02-17T12:50:47.088Z,35.73
2019-02-17T12:53:18.013Z,35.97
2019-02-17T12:55:50.766Z,33.97
2019-02-17T12:58:29.599Z,33.83
2019-02-17T13:00:53.855Z,36.73
2019-02-17T13:03:28.474Z,34.93
2019-02-17T13:05:58.370Z,33.30
2019-02-17T13:08:50.024Z,32.10
2019-02-17T13:11:20.756Z,32.77
2019-02-17T13:13:51.242Z,30.20
2019-02-17T13:16:23.620Z,31.83
2019-02-17T13:18:58.649Z,30.47
2019-02-17T13:21:30.805Z,30.53
2019-02-17T13:24:03.845Z,29.03
2019-02-17T13:26:41.438Z,28.97
2019-02-17T13:29:10.988Z,29.70
2019-02-17T13:31:44.605Z,32.13
2019-02-17T13:34:16.269Z,30.33
2019-02-17T13:36:47.584Z,29.17
2019-02-17T13:39:17.838Z,29.57
2019-02-17T13:41:49.721Z,29.33
2019-02-17T13:44:21.060Z,28.90
2019-02-17T13:46:55.232Z,27.93
2019-02-17T13:49:27.768Z,28.87
2019-02-17T13:51:58.388Z,27.70
2019-02-17T13:54:30.425Z,32.37
2019-02-17T13:57:01.629Z,29.50
2019-02-17T13:59:31.903Z,26.77
2019-02-17T14:02:04.191Z,28.20
2019-02-17T14:04:35.951Z,26.90
2019-02-17T14:07:05.630Z,26.70
2019-02-17T14:09:36.368Z,27.17
2019-02-17T14:12:09.307Z,26.00
2019-02-17T14:14:39.778Z,25.57
2019-02-17T14:17:13.257Z,26.57
2019-02-17T14:19:46.064Z,26.33
2019-02-17T14:22:17.826Z,24.87
2019-02-17T14:24:52.233Z,26.67
2019-02-17T14:27:23.841Z,25.27
2019-02-17T14:29:54.315Z,24.50
2019-02-17T14:32:25.605Z,26.57
2019-02-17T14:34:58.307Z,25.83
2019-02-17T14:37:32.159Z,26.27
2019-02-17T14:40:12.875Z,26.43
2019-02-17T14:42:43.052Z,26.87
2019-02-17T14:45:16.789Z,26.70
2019-02-17T14:47:48.522Z,26.20
2019-02-17T14:50:24.112Z,27.40
2019-02-17T14:52:56.040Z,27.83
2019-02-17T14:55:30.463Z,27.80
2019-02-17T14:58:05.767Z,26.80
2019-02-17T15:00:39.659Z,27.67
2019-02-17T15:03:10.609Z,29.70
2019-02-17T15:06:03.465Z,29.97
2019-02-17T15:08:35.138Z,29.07
2019-02-17T15:11:07.872Z,28.53
2019-02-17T15:13:40.590Z,29.73
2019-02-17T15:16:11.548Z,30.90
2019-02-17T15:18:42.176Z,29.70
2019-02-17T15:21:13.473Z,28.50
2019-02-17T15:23:45.123Z,28.77
2019-02-17T15:26:17.456Z,27.17
2019-02-17T15:28:55.261Z,28.73
2019-02-17T15:31:26.786Z,24.07
2019-02-17T15:33:58.036Z,23.93
2019-02-17T15:36:33.405Z,25.13
2019-02-17T15:39:05.041Z,23.87
2019-02-17T15:41:39.923Z,24.30
2019-02-17T15:44:09.693Z,22.73
2019-02-17T15:46:41.449Z,22.97
2019-02-17T15:49:12.425Z,23.73
2019-02-17T15:51:42.949Z,23.80
2019-02-17T15:54:12.542Z,22.47
2019-02-17T15:56:44.015Z,22.60
2019-02-17T15:59:14.483Z,23.20
2019-02-17T16:01:48.562Z,23.83
2019-02-17T16:04:27.885Z,23.13
2019-02-17T16:06:53.795Z,23.70
2019-02-17T16:09:24.619Z,24.60
2019-02-17T16:12:01.042Z,26.87
2019-02-17T16:14:32.715Z,26.23
2019-02-17T16:19:57.412Z,27.53
2019-02-17T16:22:36.034Z,27.43
2019-02-17T16:25:13.177Z,25.60
2019-02-17T16:27:43.424Z,28.20
2019-02-17T16:30:15.856Z,27.50
2019-02-17T16:32:49.013Z,26.27
2019-02-17T16:35:27.618Z,29.23
2019-02-17T16:37:58.420Z,31.70
2019-02-17T16:40:29.340Z,33.17
2019-02-17T16:43:00.716Z,34.87
2019-02-17T16:45:33.667Z,35.57
2019-02-17T16:48:12.913Z,35.90
2019-02-17T16:50:39.507Z,37.43
2019-02-17T16:53:11.162Z,36.70
2019-02-17T16:55:48.275Z,39.00
2019-02-17T16:58:22.676Z,38.33
2019-02-17T17:00:57.168Z,38.53
2019-02-17T17:03:27.100Z,39.70
2019-02-17T17:05:58.162Z,40.23
2019-02-17T17:08:48.370Z,39.33
2019-02-17T17:11:22.005Z,38.20
2019-02-17T17:13:53.462Z,39.30
2019-02-17T17:16:32.620Z,38.73
2019-02-17T17:19:01.988Z,39.57
2019-02-17T17:21:32.981Z,40.13
2019-02-17T17:24:03.746Z,39.53
2019-02-17T17:26:37.697Z,39.97
2019-02-17T17:29:10.119Z,39.80
2019-02-17T17:31:40.110Z,44.03
2019-02-17T17:34:11.139Z,44.03
2019-02-17T17:36:48.086Z,43.60
2019-02-17T17:39:19.025Z,44.30
2019-02-17T17:42:11.525Z,43.00
2019-02-17T17:44:43.466Z,44.37
2019-02-17T17:47:16.943Z,43.27
2019-02-17T17:49:49.081Z,45.17
2019-02-17T17:52:19.254Z,43.73
2019-02-17T17:54:48.793Z,43.70
2019-02-17T17:57:22.553Z,43.40
2019-02-17T17:59:55.928Z,39.00
2019-02-17T18:02:29.711Z,34.63
2019-02-17T18:05:09.301Z,34.10
2019-02-17T18:07:38.714Z,34.33
2019-02-17T18:10:15.741Z,33.10
2019-02-17T18:12:50.715Z,31.93
2019-02-17T18:15:23.300Z,33.57
2019-02-17T18:17:55.049Z,34.17
2019-02-17T18:20:26.662Z,33.83
2019-02-17T18:22:58.019Z,34.40
2019-02-17T18:25:27.951Z,32.60
2019-02-17T18:27:59.897Z,33.37
2019-02-17T18:30:33.077Z,33.90
2019-02-17T18:33:04.221Z,32.63
2019-02-17T18:35:35.354Z,36.10
2019-02-17T18:38:07.726Z,36.30
2019-02-17T18:40:46.052Z,35.57
2019-02-17T18:43:10.066Z,38.67
2019-02-17T18:45:42.793Z,37.57
2019-02-17T18:48:13.224Z,39.10
2019-02-17T18:50:44.189Z,41.60
2019-02-17T18:53:15.901Z,37.00
2019-02-17T18:55:47.805Z,37.57
2019-02-17T18:58:19.384Z,38.43
2019-02-17T19:00:51.216Z,38.47
2019-02-17T19:03:23.973Z,39.07
2019-02-17T19:05:58.421Z,38.53
2019-02-17T19:08:31.798Z,37.87
2019-02-17T19:11:04.770Z,37.77
2019-02-17T19:13:35.013Z,38.57
2019-02-17T19:16:12.450Z,40.17
2019-02-17T19:18:42.998Z,39.30
2019-02-17T19:21:13.834Z,41.37
2019-02-17T19:23:46.961Z,39.47
2019-02-17T19:26:33.897Z,40.83
2019-02-17T19:29:03.634Z,41.17
2019-02-17T19:31:34.105Z,41.47
2019-02-17T19:34:04.875Z,41.37
2019-02-17T19:36:35.866Z,43.40
2019-02-17T19:39:06.808Z,43.77
2019-02-17T19:41:39.558Z,43.27
2019-02-17T19:44:11.965Z,43.77
2019-02-17T19:46:44.824Z,43.77
2019-02-17T19:49:14.845Z,42.90
2019-02-17T19:51:49.654Z,42.13
2019-02-17T19:54:22.445Z,43.83
2019-02-17T19:56:54.606Z,43.27
2019-02-17T19:59:45.196Z,43.77
2019-02-17T20:02:19.874Z,43.43
2019-02-17T20:05:07.226Z,43.40
2019-02-17T20:07:48.292Z,41.43
2019-02-17T20:10:21.778Z,40.90
2019-02-17T20:12:59.838Z,42.53
2019-02-17T20:15:31.837Z,42.30
2019-02-17T20:18:01.637Z,41.47
2019-02-17T20:20:32.690Z,41.63
2019-02-17T20:23:06.066Z,43.07
2019-02-17T20:25:38.337Z,41.47
2019-02-17T20:28:10.335Z,42.43
2019-02-17T20:30:49.354Z,41.53
2019-02-17T20:33:33.413Z,42.67
2019-02-17T20:36:03.805Z,44.90
2019-02-17T20:38:36.546Z,43.87
2019-02-17T20:41:08.208Z,44.23
2019-02-17T20:43:38.571Z,41.47
2019-02-17T20:46:10.235Z,41.00
2019-02-17T20:48:45.028Z,41.90
2019-02-17T20:51:21.972Z,42.33
2019-02-17T20:54:00.506Z,41.77
2019-02-17T20:56:41.682Z,41.33
2019-02-17T20:59:13.024Z,41.27
2019-02-17T21:01:59.743Z,42.53
2019-02-17T21:07:13.315Z,41.63
2019-02-17T21:09:43.024Z,40.07
2019-02-17T21:12:12.508Z,40.87
2019-02-17T21:14:44.596Z,40.33
2019-02-17T21:17:14.137Z,41.97
2019-02-17T21:19:43.601Z,39.33
2019-02-17T21:22:13.010Z,41.43
2019-02-17T21:24:42.732Z,39.37
2019-02-17T21:27:12.320Z,38.70
2019-02-17T21:29:42.041Z,40.03
2019-02-17T21:32:15.565Z,41.67
2019-02-17T21:34:44.971Z,41.70
2019-02-17T21:37:14.529Z,43.40
2019-02-17T21:39:47.144Z,42.53
2019-02-17T21:42:16.560Z,40.80
2019-02-17T21:44:49.019Z,41.73
2019-02-17T21:47:23.167Z,41.83
2019-02-17T21:50:03.704Z,40.33
2019-02-17T21:52:41.656Z,111.87
2019-02-17T21:55:10.479Z,39.10
2019-02-17T21:57:40.096Z,39.30
2019-02-17T22:00:12.316Z,37.83
2019-02-17T22:02:42.108Z,39.03
2019-02-17T22:05:11.493Z,40.67
2019-02-17T22:07:43.813Z,39.17
2019-02-17T22:10:13.826Z,40.50
2019-02-17T22:12:43.333Z,38.57
2019-02-17T22:15:13.986Z,42.03
2019-02-17T22:17:43.407Z,41.20
2019-02-17T22:20:12.736Z,39.93
2019-02-17T22:22:42.045Z,38.83
2019-02-17T22:25:12.197Z,37.87
2019-02-17T22:27:41.546Z,38.80
2019-02-17T22:30:11.136Z,39.37
2019-02-17T22:32:40.469Z,36.37
2019-02-17T22:35:10.167Z,36.33
2019-02-17T22:37:39.463Z,35.47
2019-02-17T22:40:09.536Z,37.43
2019-02-17T22:42:38.895Z,37.17
2019-02-17T22:45:08.728Z,36.90
2019-02-17T22:47:38.383Z,38.53
2019-02-17T22:50:09.454Z,37.77
2019-02-17T22:52:38.718Z,37.23
2019-02-17T22:55:09.321Z,39.40
2019-02-17T22:57:39.181Z,38.43
2019-02-17T23:00:19.313Z,40.30
2019-02-17T23:02:48.572Z,39.17
2019-02-17T23:05:18.098Z,39.90
2019-02-17T23:07:47.631Z,39.13
2019-02-17T23:10:17.021Z,41.10
2019-02-17T23:12:46.366Z,41.83
2019-02-17T23:15:15.832Z,39.83
2019-02-17T23:17:45.077Z,42.70
2019-02-17T23:20:14.737Z,43.90
2019-02-17T23:22:44.013Z,45.73
2019-02-17T23:25:15.897Z,48.67
2019-02-17T23:27:45.197Z,46.03
2019-02-17T23:30:14.668Z,49.43
2019-02-17T23:32:44.234Z,48.10
2019-02-17T23:35:13.684Z,46.40
2019-02-17T23:37:43.021Z,46.70
2019-02-17T23:40:12.518Z,44.20
2019-02-17T23:42:41.752Z,43.03
2019-02-17T23:45:11.358Z,45.37
2019-02-17T23:47:40.773Z,42.77
2019-02-17T23:50:10.758Z,42.17
2019-02-17T23:52:40.207Z,38.53
2019-02-17T23:55:10.341Z,39.23
2019-02-17T23:57:41.056Z,38.03
